createdAt,value
2019-01-05T00:00:48.266Z,5.90
2019-01-05T00:03:34.867Z,5.57
2019-01-05T00:06:21.219Z,6.17
2019-01-05T00:08:51.070Z,5.60
2019-01-05T00:11:26.773Z,4.63
2019-01-05T00:13:56.596Z,5.40
2019-01-05T00:16:35.655Z,5.23
2019-01-05T00:19:21.825Z,4.93
2019-01-05T00:21:58.289Z,5.23
2019-01-05T00:24:36.954Z,5.60
2019-01-05T00:27:09.679Z,4.90
2019-01-05T00:29:52.956Z,4.70
2019-01-05T00:32:30.488Z,4.70
2019-01-05T00:35:12.663Z,4.97
2019-01-05T00:37:48.920Z,4.40
2019-01-05T00:40:34.228Z,4.43
2019-01-05T00:43:15.903Z,4.93
2019-01-05T00:45:46.391Z,4.77
2019-01-05T00:48:33.917Z,4.90
2019-01-05T00:51:09.561Z,4.60
2019-01-05T00:53:39.965Z,5.20
2019-01-05T00:56:12.957Z,5.00
2019-01-05T00:58:45.175Z,4.90
2019-01-05T01:01:24.051Z,4.10
2019-01-05T01:03:53.890Z,4.33
2019-01-05T01:06:40.116Z,3.90
2019-01-05T01:09:16.064Z,4.27
2019-01-05T01:11:57.816Z,4.27
2019-01-05T01:14:36.441Z,3.80
2019-01-05T01:17:22.925Z,3.87
2019-01-05T01:20:01.845Z,3.80
2019-01-05T01:22:34.922Z,4.17
2019-01-05T01:25:04.762Z,3.87
2019-01-05T01:27:35.143Z,3.70
2019-01-05T01:30:08.646Z,4.23
2019-01-05T01:32:50.569Z,4.03
2019-01-05T01:35:36.506Z,4.90
2019-01-05T01:38:16.715Z,3.67
2019-01-05T01:40:50.160Z,3.63
2019-01-05T01:43:35.323Z,3.80
2019-01-05T01:46:07.757Z,3.50
2019-01-05T01:48:43.565Z,4.03
2019-01-05T01:51:30.299Z,4.30
2019-01-05T01:54:12.298Z,4.30
2019-01-05T01:56:42.592Z,3.90
2019-01-05T01:59:20.086Z,3.73
2019-01-05T02:01:52.641Z,3.70
2019-01-05T02:04:39.381Z,4.40
2019-01-05T02:07:28.331Z,3.80
2019-01-05T02:10:07.469Z,3.90
2019-01-05T02:12:41.560Z,4.20
2019-01-05T02:15:29.088Z,4.00
2019-01-05T02:18:18.623Z,3.90
2019-01-05T02:20:58.565Z,4.40
2019-01-05T02:23:38.536Z,3.83
2019-01-05T02:26:29.021Z,3.80
2019-01-05T02:29:09.065Z,3.50
2019-01-05T02:31:56.177Z,3.33
2019-01-05T02:34:33.670Z,3.40
2019-01-05T02:37:19.806Z,3.23
2019-01-05T02:39:57.077Z,3.40
2019-01-05T02:42:34.561Z,3.50
2019-01-05T02:45:24.134Z,2.70
2019-01-05T02:48:12.197Z,3.10
2019-01-05T02:50:55.149Z,2.87
2019-01-05T02:53:49.118Z,2.83
2019-01-05T02:56:35.416Z,2.37
2019-01-05T02:59:21.902Z,2.87
2019-01-05T03:01:53.243Z,2.90
2019-01-05T03:04:41.045Z,3.00
2019-01-05T03:07:34.728Z,2.57
2019-01-05T03:10:31.407Z,2.47
2019-01-05T03:13:11.613Z,2.80
2019-01-05T03:15:59.238Z,2.37
2019-01-05T03:18:49.772Z,2.37
2019-01-05T03:21:26.745Z,2.40
2019-01-05T03:24:26.154Z,2.17
2019-01-05T03:29:45.983Z,2.63
2019-01-05T03:32:32.430Z,2.43
2019-01-05T03:35:09.684Z,2.70
2019-01-05T03:38:13.103Z,2.10
2019-01-05T03:40:56.247Z,3.40
2019-01-05T03:43:27.601Z,2.80
2019-01-05T03:46:10.905Z,2.70
2019-01-05T03:49:06.230Z,2.90
2019-01-05T03:51:54.167Z,3.30
2019-01-05T03:54:46.577Z,2.93
2019-01-05T03:57:26.647Z,3.40
2019-01-05T04:00:14.534Z,3.40
2019-01-05T04:03:05.364Z,3.80
2019-01-05T04:05:48.474Z,4.00
2019-01-05T04:08:48.377Z,3.70
2019-01-05T04:11:22.414Z,3.53
2019-01-05T04:13:59.334Z,4.10
2019-01-05T04:16:39.582Z,3.77
2019-01-05T04:19:30.266Z,3.23
2019-01-05T04:22:07.421Z,2.47
2019-01-05T04:25:10.218Z,2.77
2019-01-05T04:28:02.617Z,2.70
2019-01-05T04:30:45.642Z,2.70
2019-01-05T04:33:17.097Z,2.30
2019-01-05T04:36:12.741Z,2.63
2019-01-05T04:39:11.613Z,2.77
2019-01-05T04:41:45.939Z,2.80
2019-01-05T04:44:32.127Z,2.17
2019-01-05T04:47:03.511Z,2.43
2019-01-05T04:49:37.482Z,2.10
2019-01-05T04:52:37.505Z,2.50
2019-01-05T04:55:25.588Z,2.53
2019-01-05T04:58:15.135Z,2.60
2019-01-05T05:01:07.390Z,2.47
2019-01-05T05:03:53.883Z,2.73
2019-01-05T05:06:52.421Z,2.50
2019-01-05T05:09:49.599Z,2.17
2019-01-05T05:12:40.283Z,2.47
2019-01-05T05:15:17.120Z,2.50
2019-01-05T05:18:18.608Z,2.50
2019-01-05T05:21:09.096Z,2.75
2019-01-05T05:23:58.402Z,2.20
2019-01-05T05:26:44.676Z,2.30
2019-01-05T05:29:32.235Z,2.50
2019-01-05T05:32:21.383Z,2.10
2019-01-05T05:35:12.339Z,2.85
2019-01-05T05:38:06.361Z,2.90
2019-01-05T05:41:01.718Z,2.60
2019-01-05T05:43:41.872Z,2.70
2019-01-05T05:46:39.181Z,2.80
2019-01-05T05:49:29.848Z,2.40
2019-01-05T05:52:29.900Z,2.70
2019-01-05T05:55:24.053Z,3.00
2019-01-05T05:58:16.056Z,3.07
2019-01-05T06:01:16.073Z,2.90
2019-01-05T06:04:23.849Z,3.40
2019-01-05T06:07:14.720Z,3.70
2019-01-05T06:10:01.057Z,4.17
2019-01-05T06:12:49.903Z,4.10
2019-01-05T06:20:48.635Z,3.40
2019-01-05T06:23:54.181Z,3.33
2019-01-05T06:26:28.074Z,4.00
2019-01-05T06:29:25.121Z,3.30
2019-01-05T06:32:29.469Z,3.13
2019-01-05T06:35:19.039Z,3.80
2019-01-05T06:37:53.353Z,3.63
2019-01-05T06:40:39.837Z,3.80
2019-01-05T06:43:16.973Z,3.90
2019-01-05T06:46:11.096Z,3.90
2019-01-05T06:48:56.897Z,4.20
2019-01-05T06:51:43.068Z,4.50
2019-01-05T06:54:19.988Z,6.33
2019-01-05T06:56:51.352Z,7.93
2019-01-05T06:59:39.401Z,8.27
2019-01-05T07:02:28.888Z,9.40
2019-01-05T07:05:06.068Z,7.87
2019-01-05T07:07:46.037Z,5.53
2019-01-05T07:10:29.313Z,5.93
2019-01-05T07:13:20.319Z,5.63
2019-01-05T07:16:10.691Z,5.37
2019-01-05T07:19:06.241Z,5.27
2019-01-05T07:22:02.925Z,5.70
2019-01-05T07:24:40.065Z,5.90
2019-01-05T07:27:44.560Z,5.77
2019-01-05T07:30:38.577Z,5.40
2019-01-05T07:33:13.000Z,5.60
2019-01-05T07:36:14.072Z,5.10
2019-01-05T07:38:48.149Z,4.93
2019-01-05T07:41:37.372Z,6.77
2019-01-05T07:44:11.413Z,7.30
2019-01-05T07:47:06.840Z,8.50
2019-01-05T07:50:11.489Z,6.67
2019-01-05T07:52:57.827Z,5.57
2019-01-05T07:55:53.252Z,5.13
2019-01-05T07:58:27.465Z,5.80
2019-01-05T08:01:01.384Z,5.60
2019-01-05T08:03:32.752Z,6.80
2019-01-05T08:06:07.065Z,6.00
2019-01-05T08:08:56.529Z,5.73
2019-01-05T08:11:45.736Z,5.67
2019-01-05T08:14:42.757Z,5.80
2019-01-05T08:17:14.107Z,5.57
2019-01-05T08:20:14.507Z,5.60
2019-01-05T08:23:19.111Z,5.60
2019-01-05T08:26:08.693Z,5.70
2019-01-05T08:28:56.543Z,5.00
2019-01-05T08:32:00.081Z,5.33
2019-01-05T08:34:49.484Z,4.63
2019-01-05T08:37:43.502Z,5.40
2019-01-05T08:40:48.337Z,5.93
2019-01-05T08:43:36.113Z,5.13
2019-01-05T08:46:36.391Z,6.45
2019-01-05T08:49:24.485Z,5.40
2019-01-05T08:52:14.156Z,7.00
2019-01-05T08:55:09.171Z,6.17
2019-01-05T08:58:13.702Z,6.00
2019-01-05T09:01:15.277Z,8.77
2019-01-05T09:03:52.185Z,6.10
2019-01-05T09:06:53.790Z,7.30
2019-01-05T09:09:58.803Z,5.70
2019-01-05T09:12:46.693Z,6.10
2019-01-05T09:15:23.753Z,5.60
2019-01-05T09:18:14.937Z,5.80
2019-01-05T09:20:58.617Z,5.10
2019-01-05T09:23:56.995Z,5.30
2019-01-05T09:26:59.888Z,6.40
2019-01-05T09:30:03.302Z,5.90
2019-01-05T09:32:49.345Z,5.80
2019-01-05T09:35:52.530Z,6.10
2019-01-05T09:38:45.828Z,7.50
2019-01-05T09:41:31.975Z,7.70
2019-01-05T09:44:30.269Z,7.20
2019-01-05T09:47:34.848Z,6.80
2019-01-05T09:50:14.370Z,6.03
2019-01-05T09:52:48.389Z,6.30
2019-01-05T09:55:28.684Z,6.67
2019-01-05T09:58:17.700Z,6.43
2019-01-05T10:00:58.679Z,6.63
2019-01-05T10:03:46.541Z,5.63
2019-01-05T10:06:38.754Z,5.70
2019-01-05T10:09:19.235Z,5.20
2019-01-05T10:12:13.011Z,5.60
2019-01-05T10:14:59.165Z,5.57
2019-01-05T10:17:46.846Z,4.70
2019-01-05T10:20:51.381Z,4.77
2019-01-05T10:23:42.240Z,4.30
2019-01-05T10:31:55.952Z,4.30
2019-01-05T10:34:36.127Z,4.10
2019-01-05T10:37:23.916Z,4.13
2019-01-05T10:40:11.042Z,4.90
2019-01-05T10:42:54.169Z,4.80
2019-01-05T10:45:42.208Z,4.70
2019-01-05T10:48:48.179Z,4.55
2019-01-05T10:51:25.320Z,4.95
2019-01-05T10:54:08.561Z,6.05
2019-01-05T10:56:59.744Z,6.30
2019-01-05T10:59:32.166Z,5.45
2019-01-05T11:02:18.488Z,5.10
2019-01-05T11:05:06.093Z,4.40
2019-01-05T11:12:50.296Z,4.00
2019-01-05T11:15:39.829Z,4.25
2019-01-05T11:18:36.864Z,3.85
2019-01-05T11:24:05.878Z,4.20
2019-01-05T11:29:27.389Z,4.15
2019-01-05T11:32:04.475Z,3.90
2019-01-05T11:37:37.345Z,4.30
2019-01-05T11:40:11.362Z,4.83
2019-01-05T11:42:45.517Z,5.17
2019-01-05T11:45:33.055Z,4.60
2019-01-05T11:51:04.588Z,6.40
2019-01-05T11:53:41.605Z,5.40
2019-01-05T11:56:28.169Z,4.40
2019-01-05T11:59:23.737Z,4.40
2019-01-05T12:02:19.584Z,3.95
2019-01-05T12:05:22.301Z,4.90
2019-01-05T12:08:06.632Z,3.65
2019-01-05T12:10:54.373Z,3.97
2019-01-05T12:13:43.621Z,3.00
2019-01-05T12:16:40.781Z,3.65
2019-01-05T12:19:22.715Z,3.10
2019-01-05T12:25:12.839Z,3.27
2019-01-05T12:28:17.218Z,3.47
2019-01-05T12:31:05.089Z,3.30
2019-01-05T12:33:42.518Z,2.60
2019-01-05T12:36:47.217Z,3.65
2019-01-05T12:39:42.701Z,2.67
2019-01-05T12:42:19.666Z,3.10
2019-01-05T12:44:53.802Z,2.70
2019-01-05T12:47:44.725Z,4.00
2019-01-05T12:50:18.869Z,3.60
2019-01-05T12:53:15.984Z,3.03
2019-01-05T12:55:55.613Z,3.60
2019-01-05T12:58:38.881Z,3.10
2019-01-05T13:01:28.298Z,3.25
2019-01-05T13:04:14.781Z,3.30
2019-01-05T13:07:01.231Z,3.27
2019-01-05T13:09:56.726Z,3.10
2019-01-05T13:15:08.966Z,2.90
2019-01-05T13:17:55.092Z,3.13
2019-01-05T13:20:41.603Z,3.10
2019-01-05T13:31:11.277Z,3.40
2019-01-05T13:33:59.609Z,3.57
2019-01-05T13:36:39.878Z,3.40
2019-01-05T13:39:29.325Z,3.40
2019-01-05T13:42:24.752Z,3.10
2019-01-05T13:45:29.333Z,3.87
2019-01-05T13:48:33.397Z,3.67
2019-01-05T13:51:16.792Z,3.67
2019-01-05T13:53:56.854Z,3.90
2019-01-05T13:56:27.461Z,4.00
2019-01-05T13:59:03.200Z,3.20
2019-01-05T14:15:18.801Z,3.30
2019-01-05T14:20:26.669Z,3.30
2019-01-05T14:22:56.484Z,3.65
2019-01-05T14:25:41.612Z,3.73
2019-01-05T14:28:27.776Z,3.90
2019-01-05T14:31:14.422Z,3.50
2019-01-05T14:33:46.908Z,3.83
2019-01-05T14:36:22.490Z,4.57
2019-01-05T14:41:54.257Z,4.00
2019-01-05T14:44:40.634Z,3.77
2019-01-05T14:47:13.409Z,3.30
2019-01-05T14:49:52.572Z,3.37
2019-01-05T14:52:22.401Z,4.40
2019-01-05T14:55:04.222Z,3.93
2019-01-05T14:57:50.653Z,4.27
2019-01-05T15:00:23.210Z,3.70
2019-01-05T15:02:53.091Z,3.80
2019-01-05T15:05:39.568Z,3.90
2019-01-05T15:08:10.194Z,4.30
2019-01-05T15:10:56.703Z,3.60
2019-01-05T15:13:43.193Z,3.63
2019-01-05T15:16:13.045Z,3.57
2019-01-05T15:18:43.824Z,3.40
2019-01-05T15:21:16.522Z,3.20
2019-01-05T15:23:52.425Z,3.10
2019-01-05T15:26:38.533Z,2.67
2019-01-05T15:29:11.305Z,3.70
2019-01-05T15:31:47.145Z,3.75
2019-01-05T15:34:16.964Z,3.47
2019-01-05T15:36:56.657Z,3.17
2019-01-05T15:39:44.621Z,3.97
2019-01-05T15:42:20.444Z,3.63
2019-01-05T15:45:02.400Z,3.73
2019-01-05T15:47:42.004Z,3.80
2019-01-05T15:50:17.881Z,3.80
2019-01-05T15:53:06.044Z,4.27
2019-01-05T15:55:54.165Z,4.20
2019-01-05T15:58:29.591Z,3.63
2019-01-05T16:01:15.488Z,3.60
2019-01-05T16:04:03.747Z,3.90
2019-01-05T16:06:45.422Z,3.93
2019-01-05T16:09:33.817Z,4.33
2019-01-05T16:12:06.586Z,4.73
2019-01-05T16:14:42.393Z,4.27
2019-01-05T16:17:12.241Z,4.50
2019-01-05T16:19:58.422Z,3.73
2019-01-05T16:22:43.556Z,4.40
2019-01-05T16:25:16.126Z,4.37
2019-01-05T16:27:45.933Z,4.40
2019-01-05T16:30:21.794Z,4.40
2019-01-05T16:32:57.428Z,4.40
2019-01-05T16:35:43.933Z,4.33
2019-01-05T16:38:30.210Z,4.30
2019-01-05T16:41:06.004Z,4.47
2019-01-05T16:43:47.668Z,4.93
2019-01-05T16:46:17.577Z,5.23
2019-01-05T16:48:56.457Z,4.40
2019-01-05T16:51:44.310Z,4.87
2019-01-05T16:54:32.445Z,4.87
2019-01-05T16:57:20.473Z,7.60
2019-01-05T17:00:05.312Z,12.50
2019-01-05T17:02:35.194Z,7.70
2019-01-05T17:05:14.150Z,7.90
2019-01-05T17:07:47.054Z,8.40
2019-01-05T17:10:19.553Z,8.27
2019-01-05T17:12:58.511Z,8.60
2019-01-05T17:15:46.709Z,5.97
2019-01-05T17:18:32.837Z,8.47
2019-01-05T17:21:05.416Z,10.63
2019-01-05T17:23:51.929Z,7.13
2019-01-05T17:26:37.732Z,12.80
2019-01-05T17:29:23.916Z,8.67
2019-01-05T17:31:53.815Z,5.30
2019-01-05T17:34:29.368Z,6.57
2019-01-05T17:37:15.751Z,5.47
2019-01-05T17:40:02.219Z,5.80
2019-01-05T17:42:34.735Z,4.50
2019-01-05T17:45:13.521Z,3.80
2019-01-05T17:47:43.331Z,3.90
2019-01-05T17:50:16.103Z,2.80
2019-01-05T17:52:55.200Z,4.00
2019-01-05T17:55:28.101Z,3.30
2019-01-05T17:58:15.855Z,4.13
2019-01-05T18:00:45.668Z,3.50
2019-01-05T18:03:30.780Z,4.80
2019-01-05T18:06:00.632Z,3.73
2019-01-05T18:08:46.979Z,2.93
2019-01-05T18:11:16.944Z,3.07
2019-01-05T18:13:55.917Z,3.30
2019-01-05T18:16:28.421Z,3.40
2019-01-05T18:19:01.160Z,2.73
2019-01-05T18:21:30.995Z,2.17
2019-01-05T18:24:00.830Z,2.00
2019-01-05T18:26:33.641Z,2.43
2019-01-05T18:29:09.163Z,3.30
2019-01-05T18:31:54.377Z,7.03
2019-01-05T18:34:26.843Z,3.60
2019-01-05T18:37:13.248Z,6.07
2019-01-05T18:39:58.414Z,7.03
2019-01-05T18:42:28.357Z,6.73
2019-01-05T18:45:10.414Z,2.80
2019-01-05T18:47:56.704Z,2.50
2019-01-05T18:50:26.549Z,3.37
2019-01-05T18:53:02.573Z,2.80
2019-01-05T18:55:32.414Z,4.73
2019-01-05T18:58:11.519Z,4.53
2019-01-05T19:00:47.242Z,5.00
2019-01-05T19:03:26.201Z,2.33
2019-01-05T19:06:12.729Z,4.73
2019-01-05T19:08:51.813Z,7.33
2019-01-05T19:11:24.684Z,4.57
2019-01-05T19:13:57.371Z,3.70
2019-01-05T19:16:43.503Z,6.17
2019-01-05T19:19:16.416Z,6.37
2019-01-05T19:21:46.271Z,4.70
2019-01-05T19:24:22.104Z,7.70
2019-01-05T19:27:01.022Z,8.50
2019-01-05T19:29:43.126Z,10.57
2019-01-05T19:32:13.020Z,8.63
2019-01-05T19:34:59.170Z,11.30
2019-01-05T19:37:45.696Z,4.90
2019-01-05T19:40:21.592Z,5.77
2019-01-05T19:42:51.444Z,5.00
2019-01-05T19:45:21.282Z,3.77
2019-01-05T19:47:57.016Z,3.50
2019-01-05T19:50:26.836Z,3.87
2019-01-05T19:53:08.929Z,6.43
2019-01-05T19:55:54.053Z,3.70
2019-01-05T19:58:32.576Z,3.20
2019-01-05T20:01:02.439Z,3.60
2019-01-05T20:03:32.342Z,3.90
2019-01-05T20:06:11.080Z,2.67
2019-01-05T20:08:47.097Z,2.40
2019-01-05T20:11:16.968Z,4.83
2019-01-05T20:13:52.574Z,4.50
2019-01-05T20:16:38.762Z,4.57
2019-01-05T20:19:25.421Z,2.60
2019-01-05T20:22:07.286Z,3.07
2019-01-05T20:24:40.146Z,3.50
2019-01-05T20:27:19.196Z,3.57
2019-01-05T20:29:49.004Z,3.20
2019-01-05T20:32:30.480Z,5.90
2019-01-05T20:35:17.009Z,6.20
2019-01-05T20:37:46.823Z,2.53
2019-01-05T20:43:14.128Z,3.30
2019-01-05T20:45:43.953Z,2.60
2019-01-05T20:48:13.764Z,2.55
2019-01-05T20:51:00.912Z,2.90
2019-01-05T20:53:30.715Z,2.77
2019-01-05T20:56:00.573Z,2.40
2019-01-05T20:58:46.832Z,2.97
2019-01-05T21:01:28.907Z,2.70
2019-01-05T21:04:07.773Z,2.50
2019-01-05T21:06:40.626Z,2.37
2019-01-05T21:09:10.462Z,2.90
2019-01-05T21:17:03.982Z,2.60
2019-01-05T21:24:41.058Z,2.60
2019-01-05T21:38:03.765Z,2.50
2019-01-05T21:40:50.523Z,2.20
2019-01-05T22:17:46.401Z,3.00
2019-01-05T22:22:53.254Z,3.30
2019-01-05T22:25:41.161Z,2.90
2019-01-05T22:28:20.264Z,2.70
2019-01-05T22:31:05.390Z,3.10
2019-01-05T22:33:35.229Z,3.00
2019-01-05T22:36:21.771Z,3.30
2019-01-05T22:38:51.588Z,2.90
2019-01-05T22:41:36.274Z,4.20
2019-01-05T22:44:09.071Z,3.05
2019-01-05T22:46:55.542Z,3.67
2019-01-05T22:49:28.374Z,3.10
2019-01-05T22:51:58.209Z,3.30
2019-01-05T22:54:31.008Z,3.65
2019-01-05T22:57:06.769Z,3.20
2019-01-05T22:59:52.903Z,2.90
2019-01-05T23:02:39.452Z,3.20
2019-01-05T23:05:18.525Z,3.60
2019-01-05T23:08:06.620Z,4.10
2019-01-05T23:13:13.806Z,2.75
2019-01-05T23:18:27.339Z,3.10
2019-01-05T23:26:07.952Z,3.10
2019-01-05T23:52:05.265Z,5.20
2019-01-05T23:54:53.153Z,5.77
2019-01-05T23:57:39.580Z,5.77
